Time;durP1;ratioP1;P1;durP2;ratioP2;P2;SDS_P1;SDS_P2;PMS_P1;PMS_P2;Temp;Humidity;BMP_temperature;BMP_pressure;BME280_temperature;BME280_humidity;BME280_pressure;Samples;Min_cycle;Max_cycle;Signal;HPM_P1;HPM_P2
2020/12/30 00:02:22;;;;;;;7.90;3.10;;;;;;;;;;4889867;29;20040;-70
2020/12/30 00:04:48;;;;;;;4.72;2.95;;;;;;;;;;4894595;29;20045;-70
2020/12/30 00:07:14;;;;;;;3.63;2.97;;;;;;;;;;4894037;29;20051;-70
2020/12/30 00:09:41;;;;;;;4.03;2.70;;;;;;;;;;4887094;29;20493;-70
2020/12/30 00:12:07;;;;;;;3.95;2.78;;;;;;;;;;4893533;29;20104;-70
2020/12/30 00:14:33;;;;;;;5.30;2.85;;;;;;;;;;4891260;29;20057;-70
2020/12/30 00:16:59;;;;;;;4.65;3.38;;;;;;;;;;4892989;29;20461;-70
2020/12/30 00:19:25;;;;;;;5.25;3.28;;;;;;;;;;4891575;29;20044;-70
2020/12/30 00:21:51;;;;;;;5.97;3.08;;;;;;;;;;4888820;29;20068;-70
2020/12/30 00:24:17;;;;;;;6.32;3.78;;;;;;;;;;4893676;29;20076;-70
2020/12/30 00:26:43;;;;;;;5.57;3.30;;;;;;;;;;4892175;29;20049;-70
2020/12/30 00:29:10;;;;;;;6.00;3.25;;;;;;;;;;4894219;29;20127;-70
2020/12/30 00:31:36;;;;;;;5.40;3.50;;;;;;;;;;4893254;29;20052;-71
2020/12/30 00:34:02;;;;;;;5.55;3.20;;;;;;;;;;4891756;29;20545;-70
2020/12/30 00:36:28;;;;;;;6.35;3.00;;;;;;;;;;4892730;29;20044;-70
2020/12/30 00:38:54;;;;;;;5.72;2.80;;;;;;;;;;4895713;29;20496;-70
2020/12/30 00:41:20;;;;;;;4.50;2.72;;;;;;;;;;4893726;29;20033;-71
2020/12/30 00:43:46;;;;;;;4.60;3.08;;;;;;;;;;4894872;29;20048;-71
2020/12/30 00:46:16;;;;;;;5.38;3.15;;;;;;;;;;4893915;29;20032;-70
2020/12/30 00:48:46;;;;;;;6.22;3.47;;;;;;;;;;4876700;29;20092;-71
2020/12/30 00:51:13;;;;;;;6.28;3.08;;;;;;;;;;4898229;29;20052;-70
2020/12/30 00:53:40;;;;;;;5.15;2.80;;;;;;;;;;4895450;29;20036;-71
2020/12/30 00:56:08;;;;;;;4.43;3.15;;;;;;;;;;4878675;29;20517;-70
2020/12/30 00:58:38;;;;;;;5.00;3.15;;;;;;;;;;4898016;29;20036;-70
2020/12/30 01:01:07;;;;;;;4.53;3.05;;;;;;;;;;4888213;29;20083;-70
2020/12/30 01:03:52;;;;;;;4.63;3.05;;;;;;;;;;4892484;29;20653;-70
2020/12/30 01:06:18;;;;;;;5.13;3.28;;;;;;;;;;4895103;29;20108;-70
2020/12/30 01:08:45;;;;;;;7.35;3.58;;;;;;;;;;4892478;29;20049;-71
2020/12/30 01:11:12;;;;;;;4.13;2.97;;;;;;;;;;4898102;29;20493;-70
2020/12/30 01:13:38;;;;;;;5.85;3.60;;;;;;;;;;4896742;29;20056;-71
2020/12/30 01:16:04;;;;;;;5.07;3.20;;;;;;;;;;4897080;29;20505;-70
2020/12/30 01:18:30;;;;;;;5.57;3.15;;;;;;;;;;4895036;29;20509;-71
2020/12/30 01:21:00;;;;;;;5.78;3.47;;;;;;;;;;4896230;29;20041;-71
2020/12/30 01:23:27;;;;;;;7.32;4.05;;;;;;;;;;4895272;29;20531;-71
2020/12/30 01:25:54;;;;;;;7.45;3.80;;;;;;;;;;4891165;29;20109;-71
2020/12/30 01:28:20;;;;;;;4.88;3.35;;;;;;;;;;4888800;29;20053;-71
2020/12/30 01:30:47;;;;;;;8.48;3.92;;;;;;;;;;4894150;29;20108;-71
2020/12/30 01:33:13;;;;;;;6.32;3.45;;;;;;;;;;4895555;29;20133;-71
2020/12/30 01:35:39;;;;;;;8.00;3.72;;;;;;;;;;4893063;29;20053;-71
2020/12/30 01:38:05;;;;;;;6.53;3.58;;;;;;;;;;4897346;29;20048;-70
2020/12/30 01:40:32;;;;;;;5.72;3.70;;;;;;;;;;4897014;29;20112;-71
2020/12/30 01:42:58;;;;;;;7.00;4.32;;;;;;;;;;4892317;29;20053;-71
2020/12/30 01:45:24;;;;;;;6.47;4.10;;;;;;;;;;4902195;29;20052;-71
2020/12/30 01:47:50;;;;;;;5.60;4.00;;;;;;;;;;4892907;29;20044;-71
2020/12/30 01:50:16;;;;;;;6.70;3.88;;;;;;;;;;4888363;29;20052;-70
2020/12/30 01:52:43;;;;;;;7.60;3.97;;;;;;;;;;4897352;29;20404;-70
2020/12/30 01:55:10;;;;;;;6.97;4.35;;;;;;;;;;4901499;29;20382;-71
2020/12/30 01:57:37;;;;;;;7.35;4.50;;;;;;;;;;4893245;29;20096;-70
2020/12/30 02:00:09;;;;;;;8.20;5.25;;;;;;;;;;4897277;29;20401;-71
2020/12/30 02:02:37;;;;;;;8.60;6.18;;;;;;;;;;4891594;29;20053;-70
2020/12/30 02:05:06;;;;;;;12.70;6.85;;;;;;;;;;4895769;29;20485;-71
2020/12/30 02:07:33;;;;;;;12.52;7.72;;;;;;;;;;4886349;29;20049;-71
2020/12/30 02:10:00;;;;;;;12.38;7.80;;;;;;;;;;4891606;29;20076;-70
2020/12/30 02:12:27;;;;;;;15.70;7.95;;;;;;;;;;4891871;29;20044;-71
2020/12/30 02:14:53;;;;;;;14.23;8.20;;;;;;;;;;4896830;29;20041;-71
2020/12/30 02:17:19;;;;;;;16.17;8.80;;;;;;;;;;4888111;29;20044;-71
2020/12/30 02:19:46;;;;;;;16.17;9.02;;;;;;;;;;4888067;29;20519;-71
2020/12/30 02:22:14;;;;;;;15.63;9.73;;;;;;;;;;4892530;29;20049;-70
2020/12/30 02:24:40;;;;;;;13.63;9.00;;;;;;;;;;4896411;29;20126;-70
2020/12/30 02:27:06;;;;;;;15.73;8.95;;;;;;;;;;4896054;29;20064;-71
2020/12/30 02:29:32;;;;;;;16.77;10.23;;;;;;;;;;4889015;29;20393;-70
2020/12/30 02:31:59;;;;;;;20.08;10.95;;;;;;;;;;4892486;29;20136;-71
2020/12/30 02:34:25;;;;;;;19.30;11.70;;;;;;;;;;4896429;29;20063;-71
2020/12/30 02:36:52;;;;;;;16.70;10.57;;;;;;;;;;4891674;29;20049;-70
2020/12/30 02:39:18;;;;;;;20.55;11.38;;;;;;;;;;4893929;29;20071;-71
2020/12/30 02:41:45;;;;;;;16.87;11.23;;;;;;;;;;4896023;29;20564;-70
2020/12/30 02:44:11;;;;;;;19.77;12.52;;;;;;;;;;4892719;29;20530;-71
2020/12/30 02:46:38;;;;;;;18.10;11.93;;;;;;;;;;4893629;29;20049;-70
2020/12/30 02:49:04;;;;;;;20.52;12.63;;;;;;;;;;4896071;29;20100;-70
2020/12/30 02:51:31;;;;;;;22.70;13.18;;;;;;;;;;4895602;29;20044;-71
2020/12/30 02:53:56;;;;;;;22.55;13.18;;;;;;;;;;4895897;29;20072;-71
2020/12/30 02:56:23;;;;;;;23.75;14.88;;;;;;;;;;4891109;29;20044;-71
2020/12/30 02:58:49;;;;;;;23.38;14.40;;;;;;;;;;4887312;29;20045;-71
2020/12/30 03:01:16;;;;;;;22.08;14.13;;;;;;;;;;4888031;29;20051;-71
2020/12/30 03:03:42;;;;;;;23.55;15.40;;;;;;;;;;4895747;29;20573;-70
2020/12/30 03:06:08;;;;;;;24.60;15.00;;;;;;;;;;4891014;29;20041;-70
2020/12/30 03:08:35;;;;;;;25.02;15.25;;;;;;;;;;4893578;29;20052;-71
2020/12/30 03:11:01;;;;;;;26.08;15.52;;;;;;;;;;4891946;29;20048;-70
2020/12/30 03:13:27;;;;;;;24.33;15.25;;;;;;;;;;4895007;29;20732;-70
2020/12/30 03:15:54;;;;;;;24.50;15.88;;;;;;;;;;4894893;29;20574;-71
2020/12/30 03:18:20;;;;;;;23.98;13.80;;;;;;;;;;4889170;29;20056;-70
2020/12/30 03:20:46;;;;;;;25.65;14.95;;;;;;;;;;4895773;29;20100;-70
2020/12/30 03:23:12;;;;;;;25.10;14.52;;;;;;;;;;4893813;29;20049;-70
2020/12/30 03:25:38;;;;;;;24.15;15.02;;;;;;;;;;4886334;29;20514;-70
2020/12/30 03:28:04;;;;;;;23.92;15.25;;;;;;;;;;4892394;29;20059;-70
2020/12/30 03:30:30;;;;;;;25.80;15.73;;;;;;;;;;4897274;29;20056;-71
2020/12/30 03:32:57;;;;;;;25.15;15.25;;;;;;;;;;4892808;29;20462;-70
2020/12/30 03:35:24;;;;;;;24.90;15.48;;;;;;;;;;4893151;29;20036;-70
2020/12/30 03:37:52;;;;;;;21.75;14.85;;;;;;;;;;4890806;29;20091;-70
2020/12/30 03:40:18;;;;;;;24.48;16.05;;;;;;;;;;4878075;29;20048;-71
2020/12/30 03:42:45;;;;;;;23.83;14.98;;;;;;;;;;4891201;29;20052;-70
2020/12/30 03:45:11;;;;;;;24.52;15.30;;;;;;;;;;4892543;29;20049;-71
2020/12/30 03:47:38;;;;;;;28.07;15.90;;;;;;;;;;4891971;29;20049;-71
2020/12/30 03:50:04;;;;;;;26.55;14.85;;;;;;;;;;4899153;29;20068;-70
2020/12/30 03:52:30;;;;;;;25.77;15.27;;;;;;;;;;4893492;29;20041;-70
2020/12/30 03:54:58;;;;;;;24.63;15.75;;;;;;;;;;4892578;29;20442;-71
2020/12/30 03:57:24;;;;;;;18.90;12.07;;;;;;;;;;4886820;29;20055;-71
2020/12/30 03:59:50;;;;;;;24.77;15.95;;;;;;;;;;4892142;29;20061;-71
2020/12/30 04:02:16;;;;;;;26.75;16.10;;;;;;;;;;4875102;29;20454;-70
2020/12/30 04:04:42;;;;;;;27.73;16.83;;;;;;;;;;4896952;29;20075;-71
2020/12/30 04:07:08;;;;;;;27.90;17.30;;;;;;;;;;4886332;29;20085;-71
2020/12/30 04:09:35;;;;;;;34.03;18.87;;;;;;;;;;4893622;29;20393;-71
2020/12/30 04:12:01;;;;;;;29.33;17.65;;;;;;;;;;4894477;29;20110;-70
2020/12/30 04:14:27;;;;;;;27.83;16.05;;;;;;;;;;4894603;29;20036;-71
2020/12/30 04:16:56;;;;;;;29.80;16.50;;;;;;;;;;4886934;29;20497;-71
2020/12/30 04:19:22;;;;;;;28.90;16.10;;;;;;;;;;4889221;29;20500;-71
2020/12/30 04:21:49;;;;;;;25.83;15.32;;;;;;;;;;4898307;29;20059;-71
2020/12/30 04:24:15;;;;;;;26.17;15.65;;;;;;;;;;4878524;29;20561;-70
2020/12/30 04:26:42;;;;;;;27.17;15.25;;;;;;;;;;4896887;29;20119;-70
2020/12/30 04:29:08;;;;;;;24.60;15.38;;;;;;;;;;4898383;29;20049;-71
2020/12/30 04:31:35;;;;;;;25.20;14.43;;;;;;;;;;4897051;29;20495;-71
2020/12/30 04:34:01;;;;;;;;;;;;;;;;;;4891831;29;20049;-71
2020/12/30 04:36:27;;;;;;;21.08;13.57;;;;;;;;;;4895301;29;19972;-72
2020/12/30 04:38:54;;;;;;;24.90;14.70;;;;;;;;;;4898556;29;20108;-71
2020/12/30 04:41:24;;;;;;;26.02;15.73;;;;;;;;;;4894701;29;20044;-71
2020/12/30 04:43:50;;;;;;;29.13;15.43;;;;;;;;;;4891750;29;20052;-71
2020/12/30 04:46:17;;;;;;;24.50;15.60;;;;;;;;;;4894675;29;20115;-71
2020/12/30 04:48:43;;;;;;;23.40;14.68;;;;;;;;;;4893124;29;20545;-71
2020/12/30 04:51:11;;;;;;;25.13;16.00;;;;;;;;;;4900450;29;20044;-71
2020/12/30 04:53:38;;;;;;;24.52;15.38;;;;;;;;;;4897922;29;20049;-71
2020/12/30 04:56:04;;;;;;;28.53;16.53;;;;;;;;;;4897472;29;20052;-71
2020/12/30 04:58:30;;;;;;;29.05;16.48;;;;;;;;;;4898464;29;20364;-71
2020/12/30 05:00:58;;;;;;;27.33;15.80;;;;;;;;;;4897688;29;20092;-71
2020/12/30 05:03:24;;;;;;;;;;;;;;;;;;4879813;29;20107;-71
2020/12/30 05:05:51;;;;;;;24.17;14.90;;;;;;;;;;4895021;29;20311;-71
2020/12/30 05:08:18;;;;;;;30.83;16.45;;;;;;;;;;4895956;29;20044;-71
2020/12/30 05:10:45;;;;;;;24.63;14.57;;;;;;;;;;4890391;29;20055;-71
2020/12/30 05:13:12;;;;;;;24.95;15.07;;;;;;;;;;4901845;29;20051;-71
2020/12/30 05:15:39;;;;;;;25.45;14.73;;;;;;;;;;4896401;29;20048;-71
2020/12/30 05:18:06;;;;;;;32.42;15.13;;;;;;;;;;4891709;29;20469;-71
2020/12/30 05:20:36;;;;;;;26.00;15.32;;;;;;;;;;4893785;29;20056;-71
2020/12/30 05:23:07;;;;;;;24.83;15.38;;;;;;;;;;4894125;29;20060;-71
2020/12/30 05:25:38;;;;;;;25.80;15.38;;;;;;;;;;4893537;29;20055;-71
2020/12/30 05:28:05;;;;;;;23.10;14.25;;;;;;;;;;4897074;29;20044;-71
2020/12/30 05:30:31;;;;;;;20.92;11.90;;;;;;;;;;4888704;29;20040;-70
2020/12/30 05:32:58;;;;;;;24.85;14.25;;;;;;;;;;4890076;29;20048;-71
2020/12/30 05:35:25;;;;;;;28.05;15.55;;;;;;;;;;4900119;29;20052;-71
2020/12/30 05:37:51;;;;;;;20.05;12.75;;;;;;;;;;4895600;29;20044;-71
2020/12/30 05:40:18;;;;;;;22.75;14.10;;;;;;;;;;4898734;29;20040;-71
2020/12/30 05:42:45;;;;;;;23.35;12.55;;;;;;;;;;4896395;29;20052;-71
2020/12/30 05:45:16;;;;;;;27.47;13.60;;;;;;;;;;4895566;29;20393;-71
2020/12/30 05:47:43;;;;;;;30.77;15.20;;;;;;;;;;4896383;29;20143;-71
2020/12/30 05:50:12;;;;;;;22.77;13.13;;;;;;;;;;4896186;29;20037;-71
2020/12/30 05:52:40;;;;;;;23.63;14.38;;;;;;;;;;4893409;29;20060;-71
2020/12/30 05:55:09;;;;;;;23.00;14.20;;;;;;;;;;4890152;29;20055;-71
2020/12/30 05:57:37;;;;;;;23.98;14.32;;;;;;;;;;4893897;29;20207;-71
2020/12/30 06:00:11;;;;;;;23.63;14.30;;;;;;;;;;4885727;29;20041;-71
2020/12/30 06:02:41;;;;;;;20.20;12.73;;;;;;;;;;4889622;29;20521;-70
2020/12/30 06:05:11;;;;;;;21.58;13.57;;;;;;;;;;4892690;29;20044;-71
2020/12/30 06:07:38;;;;;;;23.38;13.95;;;;;;;;;;4889222;29;20056;-70
2020/12/30 06:10:05;;;;;;;23.30;13.00;;;;;;;;;;4894539;29;20488;-71
2020/12/30 06:12:37;;;;;;;21.98;13.43;;;;;;;;;;4893448;29;20405;-71
2020/12/30 06:15:03;;;;;;;22.25;12.35;;;;;;;;;;4895353;29;20048;-71
2020/12/30 06:17:30;;;;;;;23.08;13.40;;;;;;;;;;4889389;29;20119;-69
2020/12/30 06:19:56;;;;;;;24.63;13.67;;;;;;;;;;4891602;29;20046;-71
2020/12/30 06:22:26;;;;;;;24.45;14.38;;;;;;;;;;4891723;29;20075;-71
2020/12/30 06:24:56;;;;;;;24.15;13.50;;;;;;;;;;4896968;29;20051;-70
2020/12/30 06:27:25;;;;;;;26.98;13.40;;;;;;;;;;4886065;29;20508;-71
2020/12/30 06:29:53;;;;;;;27.83;13.82;;;;;;;;;;4892875;29;20060;-71
2020/12/30 06:32:30;;;;;;;23.23;11.90;;;;;;;;;;4889805;29;20039;-70
2020/12/30 06:34:56;;;;;;;24.33;14.02;;;;;;;;;;4892077;29;20072;-71
2020/12/30 06:37:32;;;;;;;22.27;13.52;;;;;;;;;;4892985;29;20070;-71
2020/12/30 06:40:17;;;;;;;26.35;14.25;;;;;;;;;;4894141;29;20100;-71
2020/12/30 06:42:44;;;;;;;23.50;13.98;;;;;;;;;;4895140;29;20072;-71
2020/12/30 06:45:14;;;;;;;22.05;13.32;;;;;;;;;;4894110;29;20552;-70
2020/12/30 06:47:59;;;;;;;25.70;14.20;;;;;;;;;;4893690;29;20060;-71
2020/12/30 06:50:27;;;;;;;26.52;14.40;;;;;;;;;;4894042;29;20060;-71
2020/12/30 06:52:54;;;;;;;26.05;14.55;;;;;;;;;;4896657;29;20040;-70
2020/12/30 06:55:38;;;;;;;28.98;15.50;;;;;;;;;;4894682;29;20048;-71
2020/12/30 06:58:05;;;;;;;24.67;13.45;;;;;;;;;;4893725;29;20053;-71
2020/12/30 07:00:31;;;;;;;26.25;14.27;;;;;;;;;;4893619;29;20152;-71
2020/12/30 07:03:10;;;;;;;25.10;13.98;;;;;;;;;;4890321;29;20045;-71
2020/12/30 07:05:36;;;;;;;25.20;13.95;;;;;;;;;;4893277;29;20449;-71
2020/12/30 07:08:02;;;;;;;31.30;15.65;;;;;;;;;;4890434;29;20051;-71
2020/12/30 07:10:29;;;;;;;28.55;15.70;;;;;;;;;;4891370;29;20041;-71
2020/12/30 07:12:55;;;;;;;27.90;15.85;;;;;;;;;;4892000;29;20052;-71
2020/12/30 07:15:26;;;;;;;29.60;16.88;;;;;;;;;;4895690;29;20051;-71
2020/12/30 07:17:55;;;;;;;27.70;15.32;;;;;;;;;;4895559;29;20116;-71
2020/12/30 07:20:22;;;;;;;26.27;14.23;;;;;;;;;;4894959;29;20045;-71
2020/12/30 07:22:48;;;;;;;29.77;15.90;;;;;;;;;;4897335;29;20533;-71
2020/12/30 07:25:15;;;;;;;32.53;15.52;;;;;;;;;;4893013;29;20041;-71
2020/12/30 07:27:41;;;;;;;30.05;15.95;;;;;;;;;;4892070;29;20136;-71
2020/12/30 07:30:08;;;;;;;33.05;14.73;;;;;;;;;;4893222;29;20064;-68
2020/12/30 07:32:34;;;;;;;29.92;16.63;;;;;;;;;;4893015;29;20051;-68
2020/12/30 07:35:01;;;;;;;28.48;15.02;;;;;;;;;;4894880;29;20053;-68
2020/12/30 07:37:27;;;;;;;30.50;16.07;;;;;;;;;;4889778;29;20040;-71
2020/12/30 07:39:53;;;;;;;31.67;15.73;;;;;;;;;;4895948;29;20297;-71
2020/12/30 07:42:23;;;;;;;30.83;15.65;;;;;;;;;;4890062;29;20402;-71
2020/12/30 07:44:57;;;;;;;32.58;16.10;;;;;;;;;;4894329;29;20041;-71
2020/12/30 07:47:24;;;;;;;33.30;15.65;;;;;;;;;;4893526;29;20051;-70
2020/12/30 07:49:50;;;;;;;32.08;15.68;;;;;;;;;;4892539;29;20049;-69
2020/12/30 07:52:17;;;;;;;30.55;16.38;;;;;;;;;;4893903;29;20496;-69
2020/12/30 07:54:43;;;;;;;30.17;15.82;;;;;;;;;;4894293;29;20127;-69
2020/12/30 07:57:13;;;;;;;30.65;15.75;;;;;;;;;;4891801;29;20040;-68
2020/12/30 07:59:40;;;;;;;34.45;17.33;;;;;;;;;;4878524;29;20132;-69
2020/12/30 08:02:13;;;;;;;32.97;14.77;;;;;;;;;;4892111;29;20057;-69
2020/12/30 08:04:40;;;;;;;35.20;15.68;;;;;;;;;;4892028;29;20045;-69
2020/12/30 08:07:10;;;;;;;30.45;15.68;;;;;;;;;;4887559;29;20129;-69
2020/12/30 08:09:38;;;;;;;35.03;15.77;;;;;;;;;;4892721;29;20081;-69
2020/12/30 08:12:04;;;;;;;;;;;;;;;;;;4884915;29;20068;-69
2020/12/30 08:14:31;;;;;;;28.27;14.15;;;;;;;;;;4892353;29;19991;-69
2020/12/30 08:16:58;;;;;;;30.90;16.00;;;;;;;;;;4892032;29;20048;-69
2020/12/30 08:19:37;;;;;;;38.13;16.42;;;;;;;;;;4888719;29;20128;-69
2020/12/30 08:22:15;;;;;;;33.80;16.52;;;;;;;;;;4887487;29;20046;-68
2020/12/30 08:24:45;;;;;;;28.08;15.00;;;;;;;;;;4890872;29;20057;-68
2020/12/30 08:27:12;;;;;;;34.60;17.02;;;;;;;;;;4892975;29;20056;-69
2020/12/30 08:29:54;;;;;;;29.30;13.65;;;;;;;;;;4892517;29;20056;-68
2020/12/30 08:32:23;;;;;;;31.00;15.73;;;;;;;;;;4892712;29;20194;-68
2020/12/30 08:34:53;;;;;;;32.47;17.48;;;;;;;;;;4877753;29;20452;-68
2020/12/30 08:37:26;;;;;;;35.65;17.45;;;;;;;;;;4892314;29;20481;-68
2020/12/30 08:39:56;;;;;;;33.65;15.23;;;;;;;;;;4893779;29;20053;-67
2020/12/30 08:42:41;;;;;;;32.22;16.88;;;;;;;;;;4889975;29;20064;-68
2020/12/30 08:45:08;;;;;;;38.97;17.30;;;;;;;;;;4893781;29;20394;-71
2020/12/30 08:47:38;;;;;;;34.47;16.20;;;;;;;;;;4893288;29;20493;-70
2020/12/30 08:50:08;;;;;;;36.03;16.73;;;;;;;;;;4895456;29;20036;-71
2020/12/30 08:52:41;;;;;;;33.85;16.60;;;;;;;;;;4891254;29;20041;-71
2020/12/30 08:55:08;;;;;;;39.13;18.45;;;;;;;;;;4894206;29;20127;-70
2020/12/30 08:57:34;;;;;;;39.70;18.50;;;;;;;;;;4892542;29;20077;-70
2020/12/30 09:00:12;;;;;;;33.67;18.20;;;;;;;;;;4889181;29;20111;-71
2020/12/30 09:02:38;;;;;;;;;;;;;;;;;;4894009;29;20053;-70
2020/12/30 09:05:05;;;;;;;39.65;18.17;;;;;;;;;;4900057;29;20390;-71
2020/12/30 09:07:32;;;;;;;35.90;18.60;;;;;;;;;;4889657;29;20037;-71
2020/12/30 09:10:02;;;;;;;40.67;19.35;;;;;;;;;;4897277;29;20304;-70
2020/12/30 09:12:29;;;;;;;44.25;19.15;;;;;;;;;;4894247;29;20045;-71
2020/12/30 09:14:55;;;;;;;43.45;20.08;;;;;;;;;;4897490;29;20044;-70
2020/12/30 09:17:22;;;;;;;45.10;19.77;;;;;;;;;;4895288;29;20508;-70
2020/12/30 09:19:49;;;;;;;43.28;19.75;;;;;;;;;;4892456;29;20128;-70
2020/12/30 09:22:15;;;;;;;31.60;15.52;;;;;;;;;;4896467;29;20549;-70
2020/12/30 09:24:42;;;;;;;38.22;17.73;;;;;;;;;;4898311;29;20053;-71
2020/12/30 09:27:20;;;;;;;29.48;15.05;;;;;;;;;;4898678;29;20572;-70
2020/12/30 09:30:04;;;;;;;35.38;17.65;;;;;;;;;;4892201;29;20052;-70
2020/12/30 09:32:30;;;;;;;44.50;19.48;;;;;;;;;;4895202;29;20043;-70
2020/12/30 09:35:00;;;;;;;41.05;19.55;;;;;;;;;;4890892;29;20037;-71
2020/12/30 09:37:26;;;;;;;42.03;20.45;;;;;;;;;;4894829;29;20147;-70
2020/12/30 09:40:12;;;;;;;43.75;20.25;;;;;;;;;;4896320;29;20461;-70
2020/12/30 09:42:39;;;;;;;45.15;21.13;;;;;;;;;;4892858;29;20037;-70
2020/12/30 09:45:07;;;;;;;51.17;21.30;;;;;;;;;;4877466;29;20621;-71
2020/12/30 09:47:34;;;;;;;43.30;20.35;;;;;;;;;;4894452;29;20111;-71
2020/12/30 09:50:00;;;;;;;40.55;19.77;;;;;;;;;;4898276;29;20051;-70
2020/12/30 09:52:27;;;;;;;44.00;20.92;;;;;;;;;;4897436;29;20045;-70
2020/12/30 09:54:53;;;;;;;45.45;20.50;;;;;;;;;;4895753;29;20044;-70
2020/12/30 09:57:19;;;;;;;44.47;22.20;;;;;;;;;;4892789;29;20045;-70
2020/12/30 09:59:45;;;;;;;47.50;21.15;;;;;;;;;;4896146;29;20083;-71
2020/12/30 10:02:11;;;;;;;42.10;20.05;;;;;;;;;;4894600;29;20049;-70
2020/12/30 10:04:38;;;;;;;41.70;20.23;;;;;;;;;;4894665;29;20044;-71
2020/12/30 10:07:04;;;;;;;47.00;21.63;;;;;;;;;;4893142;29;20040;-71
2020/12/30 10:09:31;;;;;;;46.40;21.37;;;;;;;;;;4894820;29;20096;-70
2020/12/30 10:11:57;;;;;;;46.28;22.20;;;;;;;;;;4889426;29;20045;-70
2020/12/30 10:14:23;;;;;;;43.03;20.88;;;;;;;;;;4891732;29;20040;-70
2020/12/30 10:16:49;;;;;;;41.75;21.00;;;;;;;;;;4885947;29;20105;-70
2020/12/30 10:19:16;;;;;;;45.85;21.58;;;;;;;;;;4891142;29;20064;-70
2020/12/30 10:21:42;;;;;;;49.40;21.35;;;;;;;;;;4890684;29;20060;-71
2020/12/30 10:24:08;;;;;;;48.45;21.20;;;;;;;;;;4895147;29;20044;-71
2020/12/30 10:26:34;;;;;;;46.58;21.90;;;;;;;;;;4897467;29;20037;-70
2020/12/30 10:29:00;;;;;;;43.85;21.52;;;;;;;;;;4892567;29;20068;-70
2020/12/30 10:31:27;;;;;;;44.90;22.33;;;;;;;;;;4894602;29;20408;-70
2020/12/30 10:33:53;;;;;;;49.50;22.25;;;;;;;;;;4895686;29;20111;-71
2020/12/30 10:36:21;;;;;;;44.40;21.08;;;;;;;;;;4893375;29;20048;-71
2020/12/30 10:38:47;;;;;;;43.67;21.38;;;;;;;;;;4894155;29;20561;-71
2020/12/30 10:41:15;;;;;;;40.95;21.15;;;;;;;;;;4887460;29;20507;-71
2020/12/30 10:43:42;;;;;;;47.40;21.45;;;;;;;;;;4886624;29;20045;-71
2020/12/30 10:46:12;;;;;;;39.15;19.75;;;;;;;;;;4896540;29;20044;-71
2020/12/30 10:48:39;;;;;;;42.85;20.05;;;;;;;;;;4889439;29;20045;-68
2020/12/30 10:51:09;;;;;;;36.60;19.63;;;;;;;;;;4890034;29;20040;-70
2020/12/30 10:53:35;;;;;;;42.05;20.13;;;;;;;;;;4874984;29;20045;-71
2020/12/30 10:56:01;;;;;;;39.65;19.10;;;;;;;;;;4891561;29;20040;-71
2020/12/30 10:58:28;;;;;;;39.67;18.98;;;;;;;;;;4891957;29;20420;-71
2020/12/30 11:00:55;;;;;;;37.03;18.60;;;;;;;;;;4889106;29;20048;-70
2020/12/30 11:03:21;;;;;;;35.45;18.25;;;;;;;;;;4888717;29;20053;-71
2020/12/30 11:05:47;;;;;;;38.70;18.83;;;;;;;;;;4879182;29;20517;-71
2020/12/30 11:08:14;;;;;;;35.78;17.70;;;;;;;;;;4892395;29;20500;-70
2020/12/30 11:10:40;;;;;;;31.83;16.98;;;;;;;;;;4892115;29;20053;-71
2020/12/30 11:13:06;;;;;;;33.63;16.77;;;;;;;;;;4893992;29;20485;-71
2020/12/30 11:15:36;;;;;;;36.15;18.90;;;;;;;;;;4887745;29;20510;-71
2020/12/30 11:18:03;;;;;;;40.97;18.63;;;;;;;;;;4885896;29;20206;-70
2020/12/30 11:20:29;;;;;;;35.63;18.33;;;;;;;;;;4895887;29;20049;-71
2020/12/30 11:22:56;;;;;;;38.85;19.02;;;;;;;;;;4892992;29;20056;-71
2020/12/30 11:25:22;;;;;;;38.03;16.60;;;;;;;;;;4886348;29;20052;-70
2020/12/30 11:27:48;;;;;;;31.88;17.77;;;;;;;;;;4895385;29;20049;-70
2020/12/30 11:30:14;;;;;;;30.25;15.90;;;;;;;;;;4886852;29;20053;-70
2020/12/30 11:32:43;;;;;;;32.03;16.77;;;;;;;;;;4892726;29;20037;-70
2020/12/30 11:35:10;;;;;;;29.40;15.68;;;;;;;;;;4895464;29;20052;-71
2020/12/30 11:37:36;;;;;;;24.08;12.90;;;;;;;;;;4889595;29;20045;-70
2020/12/30 11:40:03;;;;;;;27.60;15.80;;;;;;;;;;4890784;29;20532;-71
2020/12/30 11:42:30;;;;;;;29.95;15.60;;;;;;;;;;4894940;29;20048;-71
2020/12/30 11:44:56;;;;;;;31.13;16.65;;;;;;;;;;4887656;29;20124;-71
2020/12/30 11:47:23;;;;;;;32.92;17.40;;;;;;;;;;4892901;29;20053;-71
2020/12/30 11:49:49;;;;;;;25.58;12.07;;;;;;;;;;4890968;29;20044;-70
2020/12/30 11:52:16;;;;;;;32.00;16.70;;;;;;;;;;4889378;29;20049;-71
2020/12/30 11:54:42;;;;;;;27.75;15.43;;;;;;;;;;4895049;29;20052;-70
2020/12/30 11:57:10;;;;;;;29.85;15.25;;;;;;;;;;4894944;29;20076;-71
2020/12/30 11:59:36;;;;;;;32.83;15.32;;;;;;;;;;4882076;29;20052;-71
2020/12/30 12:02:03;;;;;;;35.38;17.23;;;;;;;;;;4894638;29;20068;-71
2020/12/30 12:04:29;;;;;;;27.50;15.05;;;;;;;;;;4897432;29;20099;-70
2020/12/30 12:06:58;;;;;;;27.63;15.60;;;;;;;;;;4892075;29;20049;-71
2020/12/30 12:09:25;;;;;;;28.58;15.30;;;;;;;;;;4890053;29;20044;-70
2020/12/30 12:11:51;;;;;;;32.53;15.82;;;;;;;;;;4893245;29;20052;-70
2020/12/30 12:14:17;;;;;;;25.48;14.82;;;;;;;;;;4887927;29;20047;-70
2020/12/30 12:16:53;;;;;;;26.27;13.63;;;;;;;;;;4887657;29;21698;-70
2020/12/30 12:19:19;;;;;;;27.02;14.20;;;;;;;;;;4891422;29;22154;-71
2020/12/30 12:21:46;;;;;;;25.17;13.00;;;;;;;;;;4893433;29;20052;-71
2020/12/30 12:24:12;;;;;;;23.67;13.63;;;;;;;;;;4877432;29;20052;-70
2020/12/30 12:26:39;;;;;;;21.65;12.52;;;;;;;;;;4890093;29;20151;-70
2020/12/30 12:29:28;;;;;;;22.60;13.68;;;;;;;;;;4889701;29;20060;-71
2020/12/30 12:32:08;;;;;;;22.23;12.65;;;;;;;;;;4879300;29;20060;-71
2020/12/30 12:34:35;;;;;;;20.58;11.93;;;;;;;;;;4884162;29;20084;-71
2020/12/30 12:37:01;;;;;;;23.50;12.85;;;;;;;;;;4884637;29;20129;-70
2020/12/30 12:39:27;;;;;;;18.47;11.23;;;;;;;;;;4886838;29;20041;-71
2020/12/30 12:41:54;;;;;;;21.27;12.20;;;;;;;;;;4895214;29;20075;-70
2020/12/30 12:44:21;;;;;;;20.70;11.90;;;;;;;;;;4897051;29;20060;-70
2020/12/30 12:46:47;;;;;;;16.45;10.45;;;;;;;;;;4897805;29;20048;-70
2020/12/30 12:49:14;;;;;;;14.20;9.23;;;;;;;;;;4881870;29;20509;-71
2020/12/30 12:51:44;;;;;;;14.23;9.40;;;;;;;;;;4890654;29;22639;-71
2020/12/30 12:54:27;;;;;;;16.92;10.55;;;;;;;;;;4896484;29;20040;-70
2020/12/30 12:56:57;;;;;;;14.25;8.63;;;;;;;;;;4891950;29;20044;-68
2020/12/30 12:59:25;;;;;;;14.75;9.10;;;;;;;;;;4892599;29;20885;-71
2020/12/30 13:01:51;;;;;;;17.02;10.18;;;;;;;;;;4891759;29;20053;-71
2020/12/30 13:04:17;;;;;;;16.98;9.98;;;;;;;;;;4895681;29;20512;-70
2020/12/30 13:06:43;;;;;;;18.35;10.65;;;;;;;;;;4900028;29;20049;-71
2020/12/30 13:09:10;;;;;;;20.83;10.57;;;;;;;;;;4898560;29;20083;-70
2020/12/30 13:11:45;;;;;;;18.85;9.77;;;;;;;;;;4895225;29;20461;-71
2020/12/30 13:14:12;;;;;;;19.55;10.32;;;;;;;;;;4891609;29;20112;-70
2020/12/30 13:16:44;;;;;;;17.58;9.85;;;;;;;;;;4894540;29;20113;-71
2020/12/30 13:19:10;;;;;;;19.80;10.75;;;;;;;;;;4896834;29;20060;-70
2020/12/30 13:21:36;;;;;;;16.75;10.48;;;;;;;;;;4896424;29;20072;-71
2020/12/30 13:24:02;;;;;;;16.92;10.30;;;;;;;;;;4892242;29;20110;-70
2020/12/30 13:26:29;;;;;;;21.10;9.75;;;;;;;;;;4897196;29;20060;-71
2020/12/30 13:28:55;;;;;;;17.75;10.38;;;;;;;;;;4885762;29;20412;-71
2020/12/30 13:31:21;;;;;;;15.68;8.50;;;;;;;;;;4893291;29;20458;-70
2020/12/30 13:33:47;;;;;;;14.80;9.15;;;;;;;;;;4893388;29;20081;-70
2020/12/30 13:36:17;;;;;;;15.77;9.25;;;;;;;;;;4894531;29;20052;-70
2020/12/30 13:38:43;;;;;;;16.10;9.38;;;;;;;;;;4893130;29;20048;-70
2020/12/30 13:41:09;;;;;;;17.92;10.25;;;;;;;;;;4894188;29;20088;-70
2020/12/30 13:43:35;;;;;;;17.30;10.00;;;;;;;;;;4896705;29;20048;-70
2020/12/30 13:46:01;;;;;;;19.88;9.20;;;;;;;;;;4896865;29;20036;-71
2020/12/30 13:48:27;;;;;;;16.85;9.57;;;;;;;;;;4893167;29;20485;-70
2020/12/30 13:50:54;;;;;;;15.60;9.00;;;;;;;;;;4894469;29;20082;-70
2020/12/30 13:53:20;;;;;;;15.50;8.88;;;;;;;;;;4890493;29;20422;-70
2020/12/30 13:55:47;;;;;;;14.90;8.48;;;;;;;;;;4896781;29;20088;-71
2020/12/30 13:58:13;;;;;;;16.80;9.05;;;;;;;;;;4895738;29;20048;-71
2020/12/30 14:00:39;;;;;;;15.93;9.32;;;;;;;;;;4896185;29;20112;-71
2020/12/30 14:03:05;;;;;;;14.25;8.20;;;;;;;;;;4894168;29;20044;-70
2020/12/30 14:05:35;;;;;;;15.98;8.55;;;;;;;;;;4895792;29;20048;-71
2020/12/30 14:08:01;;;;;;;13.27;8.07;;;;;;;;;;4896047;29;20041;-71
2020/12/30 14:10:27;;;;;;;18.08;8.70;;;;;;;;;;4896910;29;20036;-70
2020/12/30 14:12:53;;;;;;;16.70;9.05;;;;;;;;;;4894867;29;20469;-71
2020/12/30 14:15:20;;;;;;;15.23;8.60;;;;;;;;;;4896428;29;20119;-71
2020/12/30 14:17:46;;;;;;;18.35;9.27;;;;;;;;;;4894445;29;20064;-70
2020/12/30 14:20:12;;;;;;;19.05;9.30;;;;;;;;;;4893674;29;20390;-70
2020/12/30 14:22:38;;;;;;;18.00;9.70;;;;;;;;;;4895615;29;20056;-71
2020/12/30 14:25:04;;;;;;;18.20;10.93;;;;;;;;;;4896406;29;20442;-70
2020/12/30 14:27:31;;;;;;;23.98;10.90;;;;;;;;;;4894754;29;20462;-70